Time;durP1;ratioP1;P1;durP2;ratioP2;P2;SDS_P1;SDS_P2;PMS_P1;PMS_P2;Temp;Humidity;BMP_temperature;BMP_pressure;BME280_temperature;BME280_humidity;BME280_pressure;Samples;Min_cycle;Max_cycle;Signal;HPM_P1;HPM_P2
2021/10/16 00:01:20;;;;;;;4.18;0.40;;;7.00;85.20;;;;;;4990008;28;20118;-62
2021/10/16 00:03:46;;;;;;;7.00;0.38;;;7.00;85.20;;;;;;4992830;28;20057;-62
2021/10/16 00:06:12;;;;;;;0.95;0.30;;;6.90;85.20;;;;;;4998274;28;20053;-62
2021/10/16 00:08:37;;;;;;;0.50;0.28;;;6.90;86.00;;;;;;4992482;28;20018;-62
2021/10/16 00:11:04;;;;;;;2.40;0.50;;;6.80;85.40;;;;;;4990554;28;20540;-62
2021/10/16 00:13:31;;;;;;;4.80;0.70;;;6.80;85.70;;;;;;4993346;28;20030;-62
2021/10/16 00:15:56;;;;;;;3.13;0.70;;;6.60;86.40;;;;;;4991826;28;20027;-62
2021/10/16 00:18:22;;;;;;;4.65;1.00;;;6.40;87.50;;;;;;4992779;28;20077;-62
2021/10/16 00:20:47;;;;;;;1.23;0.60;;;6.30;88.80;;;;;;4995467;28;20026;-62
2021/10/16 00:23:13;;;;;;;1.10;0.60;;;6.30;88.40;;;;;;4989385;28;20050;-62
2021/10/16 00:25:38;;;;;;;2.83;0.80;;;6.30;88.40;;;;;;4998318;28;20072;-62
2021/10/16 00:28:04;;;;;;;4.72;1.45;;;6.20;88.40;;;;;;4995247;28;20033;-62
2021/10/16 00:30:29;;;;;;;3.35;0.60;;;6.30;88.60;;;;;;4992667;28;20030;-62
2021/10/16 00:32:55;;;;;;;3.20;0.80;;;6.30;88.50;;;;;;4989497;28;20037;-62
2021/10/16 00:35:21;;;;;;;2.38;0.70;;;6.40;88.60;;;;;;4990326;28;20029;-62
2021/10/16 00:37:46;;;;;;;2.05;0.85;;;6.40;88.50;;;;;;4992338;28;20426;-62
2021/10/16 00:40:12;;;;;;;3.53;0.93;;;6.40;88.40;;;;;;4992462;28;20026;-62
2021/10/16 00:42:49;;;;;;;2.53;0.73;;;6.40;88.40;;;;;;4995159;28;20498;-62
2021/10/16 00:45:16;;;;;;;4.13;1.23;;;6.50;88.40;;;;;;4974819;28;20022;-62
2021/10/16 00:47:42;;;;;;;2.35;1.13;;;6.40;88.30;;;;;;4995174;28;20060;-62
2021/10/16 00:50:09;;;;;;;6.03;1.02;;;6.40;88.40;;;;;;5000264;28;20027;-62
2021/10/16 00:52:39;;;;;;;2.45;1.40;;;6.40;88.60;;;;;;4992852;28;20557;-62
2021/10/16 00:55:18;;;;;;;;;;;6.40;88.60;;;;;;4995456;28;20097;-62
2021/10/16 00:57:44;;;;;;;8.23;1.07;;;6.40;88.50;;;;;;4977843;28;19959;-62
2021/10/16 01:00:11;;;;;;;9.23;1.33;;;6.30;88.70;;;;;;4992121;28;20036;-62
2021/10/16 01:02:36;;;;;;;2.67;0.82;;;6.30;88.60;;;;;;4994964;28;20131;-62
2021/10/16 01:05:04;;;;;;;2.42;0.93;;;6.30;88.70;;;;;;4994823;28;20106;-62
2021/10/16 01:07:30;;;;;;;2.63;0.82;;;6.20;88.90;;;;;;4991994;28;20097;-62
2021/10/16 01:09:56;;;;;;;1.38;0.90;;;6.20;89.20;;;;;;4994680;28;20288;-62
2021/10/16 01:12:21;;;;;;;3.05;0.77;;;6.20;89.30;;;;;;4997178;28;20104;-62
2021/10/16 01:14:50;;;;;;;7.05;0.70;;;6.10;89.40;;;;;;4991710;28;20478;-62
2021/10/16 01:17:18;;;;;;;1.55;0.65;;;6.10;89.50;;;;;;4994862;28;20117;-62
2021/10/16 01:19:45;;;;;;;7.40;0.60;;;6.10;89.80;;;;;;4994739;28;20034;-62
2021/10/16 01:22:12;;;;;;;5.70;0.90;;;6.10;90.00;;;;;;4994191;28;20026;-62
2021/10/16 01:24:38;;;;;;;1.42;0.82;;;6.00;90.00;;;;;;4991841;28;20394;-62
2021/10/16 01:27:05;;;;;;;1.50;0.88;;;5.90;90.20;;;;;;4999329;28;20633;-62
2021/10/16 01:29:34;;;;;;;1.73;0.85;;;5.90;90.30;;;;;;4987689;28;20441;-63
2021/10/16 01:32:01;;;;;;;1.42;0.77;;;6.00;90.40;;;;;;4994034;28;20524;-62
2021/10/16 01:34:27;;;;;;;0.98;0.70;;;6.00;90.40;;;;;;4994455;28;20041;-62
2021/10/16 01:36:52;;;;;;;2.83;0.93;;;6.00;90.40;;;;;;4991662;28;20355;-62
2021/10/16 01:39:19;;;;;;;2.17;0.80;;;6.00;90.30;;;;;;4991546;28;20475;-62
2021/10/16 01:41:45;;;;;;;3.70;0.85;;;6.00;90.40;;;;;;4996605;28;20513;-62
2021/10/16 01:44:12;;;;;;;2.33;1.13;;;6.00;90.40;;;;;;4994093;28;20026;-63
2021/10/16 01:46:38;;;;;;;2.13;0.70;;;6.10;90.40;;;;;;4994339;28;20081;-62
2021/10/16 01:49:15;;;;;;;3.10;0.95;;;6.10;90.50;;;;;;4991335;28;20022;-62
2021/10/16 01:51:42;;;;;;;3.92;1.52;;;6.10;90.50;;;;;;4994216;28;20025;-62
2021/10/16 01:54:07;;;;;;;3.83;1.83;;;6.10;90.70;;;;;;4994232;28;20024;-62
2021/10/16 01:56:33;;;;;;;6.20;1.73;;;6.00;90.90;;;;;;4994447;28;20014;-62
2021/10/16 01:59:15;;;;;;;4.80;1.90;;;6.00;90.90;;;;;;4993139;28;20105;-62
2021/10/16 02:01:41;;;;;;;3.92;1.90;;;6.10;91.00;;;;;;4990519;28;20030;-62
2021/10/16 02:04:07;;;;;;;8.80;2.10;;;6.10;91.00;;;;;;4991084;28;20085;-62
2021/10/16 02:06:32;;;;;;;4.55;1.75;;;6.10;91.00;;;;;;4991296;28;20033;-62
2021/10/16 02:08:58;;;;;;;7.35;2.70;;;6.20;91.00;;;;;;4994039;28;20125;-62
2021/10/16 02:11:23;;;;;;;9.40;3.08;;;6.20;91.30;;;;;;4993934;28;20378;-62
2021/10/16 02:13:49;;;;;;;6.47;3.00;;;6.00;92.30;;;;;;5003856;28;20034;-62
2021/10/16 02:16:14;;;;;;;6.88;2.78;;;5.90;93.00;;;;;;5002070;28;20078;-62
2021/10/16 02:18:40;;;;;;;7.70;3.95;;;5.90;93.30;;;;;;4996761;28;20483;-62
2021/10/16 02:21:05;;;;;;;4.53;2.35;;;5.90;93.40;;;;;;4990927;28;20041;-62
2021/10/16 02:23:31;;;;;;;4.45;2.17;;;6.00;93.30;;;;;;4993307;28;20026;-62
2021/10/16 02:25:56;;;;;;;3.47;2.00;;;6.10;93.40;;;;;;5006584;28;20502;-62
2021/10/16 02:28:22;;;;;;;5.18;2.38;;;6.20;93.40;;;;;;4994789;28;20390;-62
2021/10/16 02:30:47;;;;;;;6.05;2.35;;;6.20;93.30;;;;;;5003088;28;20021;-62
2021/10/16 02:33:13;;;;;;;4.60;1.95;;;6.20;93.30;;;;;;4993875;28;20026;-62
2021/10/16 02:35:38;;;;;;;4.15;1.70;;;6.30;93.30;;;;;;4993657;28;20045;-62
2021/10/16 02:38:04;;;;;;;6.53;1.90;;;6.30;93.30;;;;;;4991201;28;20856;-62
2021/10/16 02:40:31;;;;;;;4.65;1.63;;;6.30;93.50;;;;;;4991793;28;20538;-62
2021/10/16 02:42:56;;;;;;;5.95;1.80;;;6.40;93.20;;;;;;4997464;28;20022;-62
2021/10/16 02:45:22;;;;;;;2.92;1.48;;;6.40;93.20;;;;;;4999759;28;20049;-62
2021/10/16 02:47:48;;;;;;;4.30;1.70;;;6.40;93.20;;;;;;4994809;28;20022;-62
2021/10/16 02:50:14;;;;;;;4.03;1.65;;;6.50;93.30;;;;;;4996021;28;20031;-62
2021/10/16 02:52:40;;;;;;;7.25;1.30;;;6.50;93.30;;;;;;4997244;28;20033;-63
2021/10/16 02:55:06;;;;;;;3.75;1.70;;;6.50;93.30;;;;;;4977488;28;20035;-63
2021/10/16 02:57:32;;;;;;;5.65;1.63;;;6.60;93.40;;;;;;4998194;28;20019;-62
2021/10/16 02:59:59;;;;;;;1.90;1.00;;;6.60;93.40;;;;;;4997542;28;20038;-62
2021/10/16 03:02:25;;;;;;;4.47;1.55;;;6.70;93.50;;;;;;4995195;28;20030;-62
2021/10/16 03:04:50;;;;;;;2.63;1.45;;;6.70;93.50;;;;;;4997112;28;20100;-63
2021/10/16 03:07:16;;;;;;;4.40;1.52;;;6.70;93.50;;;;;;4991091;28;20042;-62
2021/10/16 03:09:42;;;;;;;4.00;1.27;;;6.80;93.60;;;;;;4995716;28;20022;-62
2021/10/16 03:12:07;;;;;;;4.97;1.80;;;6.80;93.60;;;;;;4996690;28;20522;-62
2021/10/16 03:14:33;;;;;;;5.05;2.30;;;6.80;93.70;;;;;;4994020;28;20101;-62
2021/10/16 03:16:58;;;;;;;5.22;1.90;;;6.70;93.90;;;;;;4996935;28;20101;-62
2021/10/16 03:19:24;;;;;;;5.20;1.77;;;6.70;94.00;;;;;;4994003;28;20034;-63
2021/10/16 03:21:49;;;;;;;4.53;2.20;;;6.70;94.10;;;;;;4996304;28;20038;-62
2021/10/16 03:24:15;;;;;;;3.42;1.85;;;6.80;94.20;;;;;;4993910;28;20026;-62
2021/10/16 03:26:40;;;;;;;5.18;1.40;;;6.80;94.30;;;;;;4996579;28;20026;-62
2021/10/16 03:29:06;;;;;;;4.00;1.27;;;6.80;94.30;;;;;;4993840;28;20545;-63
2021/10/16 03:31:31;;;;;;;4.05;1.77;;;6.90;94.30;;;;;;4996104;28;20022;-62
2021/10/16 03:33:57;;;;;;;5.50;2.45;;;6.90;94.30;;;;;;4993769;28;20026;-62
2021/10/16 03:36:22;;;;;;;7.78;2.60;;;6.90;94.60;;;;;;4993615;28;20033;-63
2021/10/16 03:38:48;;;;;;;7.32;2.10;;;6.80;94.90;;;;;;4993495;28;20026;-62
2021/10/16 03:41:14;;;;;;;4.85;1.70;;;6.90;95.00;;;;;;4996232;28;20032;-62
2021/10/16 03:43:39;;;;;;;6.35;1.80;;;6.90;95.00;;;;;;4993590;28;20022;-63
2021/10/16 03:46:05;;;;;;;3.10;1.60;;;7.00;95.00;;;;;;4996244;28;20586;-62
2021/10/16 03:48:30;;;;;;;2.30;1.30;;;7.00;95.00;;;;;;4989413;28;20023;-63
2021/10/16 03:50:56;;;;;;;3.83;1.20;;;7.00;95.00;;;;;;4998456;28;20034;-63
2021/10/16 03:53:21;;;;;;;5.25;1.95;;;7.10;95.00;;;;;;4994074;28;20029;-63
2021/10/16 03:55:47;;;;;;;4.53;1.77;;;7.10;95.10;;;;;;4993191;28;20470;-62
2021/10/16 03:58:12;;;;;;;3.28;1.60;;;7.00;95.20;;;;;;4993151;28;20490;-62
2021/10/16 04:00:38;;;;;;;3.65;1.70;;;7.00;95.30;;;;;;4993084;28;20022;-63
2021/10/16 04:03:05;;;;;;;3.97;1.65;;;7.00;95.40;;;;;;4991109;28;20026;-62
2021/10/16 04:05:34;;;;;;;3.65;1.40;;;7.10;95.40;;;;;;4995760;28;20486;-62
2021/10/16 04:08:00;;;;;;;2.50;1.63;;;7.10;95.40;;;;;;4996023;28;20094;-62
2021/10/16 04:10:26;;;;;;;7.55;2.40;;;7.10;95.40;;;;;;4992779;28;20121;-62
2021/10/16 04:12:51;;;;;;;5.22;1.58;;;7.10;95.60;;;;;;4993004;28;20098;-62
2021/10/16 04:15:17;;;;;;;3.38;1.85;;;7.10;95.70;;;;;;4995900;28;20041;-62
2021/10/16 04:17:45;;;;;;;2.83;1.67;;;7.10;95.80;;;;;;4992567;28;20382;-63
2021/10/16 04:20:12;;;;;;;4.13;1.65;;;7.10;95.90;;;;;;4991378;28;20015;-62
2021/10/16 04:22:37;;;;;;;4.75;1.73;;;7.20;95.90;;;;;;4989329;28;20033;-63
2021/10/16 04:25:03;;;;;;;3.35;1.05;;;7.20;95.90;;;;;;4995607;28;20026;-62
2021/10/16 04:27:29;;;;;;;5.15;1.45;;;7.20;95.90;;;;;;4995249;28;20029;-62
2021/10/16 04:29:54;;;;;;;6.00;2.22;;;7.20;95.90;;;;;;4977744;28;20026;-62
2021/10/16 04:32:20;;;;;;;6.35;2.40;;;7.20;96.00;;;;;;4989671;28;20042;-62
2021/10/16 04:34:46;;;;;;;4.53;2.30;;;7.20;96.30;;;;;;4990542;28;20034;-63
2021/10/16 04:37:11;;;;;;;5.68;2.58;;;7.20;96.50;;;;;;4991058;28;20029;-62
2021/10/16 04:39:37;;;;;;;4.72;1.42;;;7.20;96.60;;;;;;4993375;28;20034;-62
2021/10/16 04:42:04;;;;;;;4.90;2.00;;;7.20;96.60;;;;;;5000081;28;20030;-62
2021/10/16 04:44:30;;;;;;;3.30;1.83;;;7.20;96.70;;;;;;4991037;28;20109;-62
2021/10/16 04:46:55;;;;;;;2.88;1.50;;;7.30;96.70;;;;;;4995297;28;20126;-62
2021/10/16 04:49:22;;;;;;;4.72;1.70;;;7.30;96.80;;;;;;4990585;28;20470;-62
2021/10/16 04:51:47;;;;;;;2.40;1.27;;;7.30;96.80;;;;;;4992621;28;20019;-62
2021/10/16 04:54:13;;;;;;;3.95;1.80;;;7.30;96.70;;;;;;4996766;28;20429;-62
2021/10/16 04:56:38;;;;;;;3.88;1.42;;;7.40;96.80;;;;;;4994446;28;20029;-62
2021/10/16 04:59:04;;;;;;;3.60;1.42;;;7.40;96.70;;;;;;4995465;28;20494;-62
2021/10/16 05:01:29;;;;;;;5.53;2.17;;;7.40;96.70;;;;;;4993351;28;20470;-63
2021/10/16 05:03:55;;;;;;;9.85;3.38;;;7.40;96.70;;;;;;4992804;28;20022;-62
2021/10/16 05:06:20;;;;;;;10.70;3.50;;;7.40;97.10;;;;;;4995114;28;20018;-62
2021/10/16 05:08:46;;;;;;;7.22;2.95;;;7.30;97.50;;;;;;4992501;28;20383;-62
2021/10/16 05:11:12;;;;;;;6.63;3.20;;;7.30;97.70;;;;;;4999885;28;20022;-62
2021/10/16 05:13:37;;;;;;;7.55;2.75;;;7.30;97.80;;;;;;4994702;28;20033;-62
2021/10/16 05:16:03;;;;;;;5.75;2.33;;;7.40;97.90;;;;;;4993901;28;20057;-62
2021/10/16 05:18:31;;;;;;;5.45;2.08;;;7.30;97.90;;;;;;5001710;28;20026;-62
2021/10/16 05:20:56;;;;;;;5.20;2.25;;;7.40;97.90;;;;;;5004629;28;20029;-62
2021/10/16 05:23:22;;;;;;;5.43;1.85;;;7.40;97.80;;;;;;4995706;28;20491;-62
2021/10/16 05:25:47;;;;;;;3.55;1.70;;;7.50;97.80;;;;;;5002446;28;20026;-62
2021/10/16 05:28:13;;;;;;;3.92;1.63;;;7.50;97.70;;;;;;5014702;28;20036;-62
2021/10/16 05:30:39;;;;;;;4.22;1.73;;;7.60;97.70;;;;;;5026761;28;20037;-62
2021/10/16 05:33:05;;;;;;;2.90;1.77;;;7.60;97.70;;;;;;4994990;28;20053;-62
2021/10/16 05:35:31;;;;;;;4.05;2.10;;;7.60;97.60;;;;;;5009015;28;20050;-62
2021/10/16 05:37:56;;;;;;;4.50;1.65;;;7.60;97.60;;;;;;5002815;28;20109;-62
2021/10/16 05:40:22;;;;;;;4.70;1.80;;;7.70;97.60;;;;;;5012552;28;20041;-62
2021/10/16 05:42:47;;;;;;;6.45;1.92;;;7.70;97.60;;;;;;5007769;28;20034;-62
2021/10/16 05:45:13;;;;;;;6.18;2.95;;;7.70;97.50;;;;;;5007969;28;20036;-62
2021/10/16 05:47:41;;;;;;;6.88;4.05;;;7.70;97.80;;;;;;5012286;28;20469;-62
2021/10/16 05:50:07;;;;;;;9.73;3.17;;;7.60;98.30;;;;;;5012464;28;20030;-62
2021/10/16 05:52:33;;;;;;;7.78;3.13;;;7.50;98.60;;;;;;5012537;28;20385;-62
2021/10/16 05:54:59;;;;;;;7.65;2.47;;;7.50;98.70;;;;;;5012709;28;20026;-62
2021/10/16 05:57:24;;;;;;;7.28;3.50;;;7.50;98.70;;;;;;5012659;28;20026;-62
2021/10/16 05:59:50;;;;;;;8.02;3.08;;;7.50;98.90;;;;;;5012068;28;20050;-62
2021/10/16 06:02:15;;;;;;;5.55;2.80;;;7.50;99.10;;;;;;4994874;28;20041;-62
2021/10/16 06:04:41;;;;;;;6.72;2.47;;;7.50;99.20;;;;;;5011529;28;20104;-62
2021/10/16 06:07:06;;;;;;;5.38;2.10;;;7.50;99.20;;;;;;5008040;28;20068;-62
2021/10/16 06:09:32;;;;;;;5.57;2.40;;;7.50;99.10;;;;;;5011893;28;20482;-62
2021/10/16 06:12:03;;;;;;;6.15;2.28;;;7.50;99.10;;;;;;5012390;28;20398;-62
2021/10/16 06:14:28;;;;;;;7.68;2.30;;;7.60;99.10;;;;;;5014182;28;20022;-62
2021/10/16 06:16:54;;;;;;;5.72;2.35;;;7.60;99.10;;;;;;5016359;28;20026;-62
2021/10/16 06:19:19;;;;;;;7.70;3.17;;;7.60;99.10;;;;;;5011409;28;20432;-62
2021/10/16 06:21:45;;;;;;;6.80;2.40;;;7.60;99.10;;;;;;5012194;28;20030;-62
2021/10/16 06:24:11;;;;;;;5.05;2.65;;;7.70;99.10;;;;;;5016280;28;20062;-62
2021/10/16 06:26:37;;;;;;;5.90;1.80;;;7.70;99.00;;;;;;4998570;28;20057;-62
2021/10/16 06:29:02;;;;;;;3.92;1.73;;;7.80;99.00;;;;;;4998584;28;20112;-62
2021/10/16 06:31:28;;;;;;;4.70;2.13;;;7.80;98.90;;;;;;5014205;28;20038;-62
2021/10/16 06:33:53;;;;;;;6.75;1.92;;;7.80;98.80;;;;;;4993760;28;20017;-62
2021/10/16 06:36:19;;;;;;;4.93;1.63;;;7.90;98.80;;;;;;4996603;28;20057;-62
2021/10/16 06:38:44;;;;;;;4.25;1.50;;;7.90;98.70;;;;;;4998126;28;20029;-62
2021/10/16 06:41:10;;;;;;;5.35;2.20;;;7.90;98.60;;;;;;5011894;28;20434;-63
2021/10/16 06:43:35;;;;;;;5.90;2.67;;;7.90;98.60;;;;;;5012188;28;20045;-62
2021/10/16 06:46:01;;;;;;;8.05;2.63;;;7.90;98.70;;;;;;5011712;28;20022;-62
2021/10/16 06:48:26;;;;;;;7.43;2.35;;;7.90;98.80;;;;;;5010052;28;20045;-62
2021/10/16 06:50:52;;;;;;;4.03;2.20;;;7.90;98.80;;;;;;5008211;28;20022;-62
2021/10/16 06:53:17;;;;;;;5.38;2.08;;;8.00;98.90;;;;;;5010107;28;20080;-62
2021/10/16 06:55:43;;;;;;;5.97;2.17;;;8.00;98.90;;;;;;5006335;28;20022;-62
2021/10/16 06:58:08;;;;;;;5.10;2.08;;;8.00;98.90;;;;;;5003412;28;20518;-62
2021/10/16 07:00:36;;;;;;;5.22;2.35;;;8.10;98.80;;;;;;5009982;28;20069;-62
2021/10/16 07:03:03;;;;;;;5.75;2.00;;;8.10;98.80;;;;;;5013503;28;20092;-62
2021/10/16 07:05:28;;;;;;;4.72;1.67;;;8.10;99.10;;;;;;5002900;28;20022;-62
2021/10/16 07:07:54;;;;;;;5.45;2.03;;;8.20;98.80;;;;;;5011065;28;20072;-62
2021/10/16 07:10:38;;;;;;;;;;;;;;;;;;;;;
2021/10/16 07:13:05;;;;;;;6.85;2.40;;;8.30;98.60;;;;;;5010236;28;20396;-62
2021/10/16 07:15:32;;;;;;;11.73;3.60;;;8.30;98.80;;;;;;5011855;28;20034;-62
2021/10/16 07:17:58;;;;;;;8.55;3.13;;;8.30;99.00;;;;;;4994203;28;20018;-62
2021/10/16 07:20:23;;;;;;;10.68;3.75;;;8.30;99.20;;;;;;5004733;28;20034;-62
2021/10/16 07:22:49;;;;;;;9.32;3.05;;;8.30;99.30;;;;;;5005803;28;20474;-62
2021/10/16 07:25:14;;;;;;;10.73;2.97;;;8.30;99.40;;;;;;5012944;28;20026;-62
2021/10/16 07:27:40;;;;;;;7.88;2.95;;;8.40;99.40;;;;;;4996134;28;20611;-63
2021/10/16 07:30:06;;;;;;;8.10;3.47;;;8.40;99.50;;;;;;5014639;28;20535;-62
2021/10/16 07:32:31;;;;;;;11.35;3.67;;;8.40;99.50;;;;;;5015355;28;20084;-62
2021/10/16 07:34:57;;;;;;;11.05;3.08;;;8.50;99.60;;;;;;4993860;28;20521;-63
2021/10/16 07:37:22;;;;;;;9.82;3.53;;;8.50;99.50;;;;;;5009070;28;20034;-62
2021/10/16 07:39:48;;;;;;;11.32;3.25;;;8.50;99.40;;;;;;5010021;28;20371;-62
2021/10/16 07:42:14;;;;;;;6.72;2.60;;;8.60;99.40;;;;;;5007793;28;20030;-62
2021/10/16 07:44:47;;;;;;;11.38;2.72;;;8.60;99.40;;;;;;5014734;28;20037;-62
2021/10/16 07:47:12;;;;;;;8.48;2.47;;;8.70;99.30;;;;;;5013615;28;20065;-62
2021/10/16 07:49:38;;;;;;;6.88;3.03;;;8.70;99.20;;;;;;5013037;28;20073;-64
2021/10/16 07:52:03;;;;;;;9.73;2.70;;;8.70;99.10;;;;;;5014152;28;20022;-64
2021/10/16 07:54:29;;;;;;;10.98;2.90;;;8.80;99.10;;;;;;5010133;28;20471;-64
2021/10/16 07:56:54;;;;;;;9.38;3.05;;;8.80;99.00;;;;;;5009672;28;20226;-64
2021/10/16 07:59:20;;;;;;;12.20;3.00;;;8.90;99.00;;;;;;5012259;28;20049;-64
2021/10/16 08:01:45;;;;;;;9.07;3.05;;;8.90;99.00;;;;;;5009941;28;20030;-63
2021/10/16 08:04:11;;;;;;;9.38;2.92;;;9.00;98.90;;;;;;4996211;28;20501;-63
2021/10/16 08:06:37;;;;;;;5.95;2.20;;;9.00;98.70;;;;;;5012571;28;20053;-63
2021/10/16 08:09:03;;;;;;;8.27;2.78;;;9.10;98.70;;;;;;5006757;28;20371;-63
2021/10/16 08:11:29;;;;;;;7.93;2.58;;;9.20;98.60;;;;;;5010410;28;20104;-62
2021/10/16 08:13:54;;;;;;;6.53;1.90;;;9.30;98.50;;;;;;5014066;28;20445;-62
2021/10/16 08:16:20;;;;;;;4.70;1.88;;;9.30;98.30;;;;;;4995714;28;20014;-63
2021/10/16 08:18:45;;;;;;;5.07;1.90;;;9.50;98.30;;;;;;5013943;28;20038;-63
2021/10/16 08:21:11;;;;;;;5.97;1.50;;;9.50;98.10;;;;;;5013416;28;20045;-62
2021/10/16 08:23:42;;;;;;;7.57;1.58;;;9.60;98.00;;;;;;5013732;28;20029;-62
2021/10/16 08:26:16;;;;;;;8.00;1.65;;;9.70;97.80;;;;;;5013644;28;20068;-63
2021/10/16 08:28:50;;;;;;;7.05;1.95;;;9.80;97.60;;;;;;5013753;28;20109;-63
2021/10/16 08:31:16;;;;;;;9.40;2.05;;;9.90;97.50;;;;;;4996041;28;21050;-63
2021/10/16 08:34:01;;;;;;;;;;;;;;;;;;;;;
2021/10/16 08:39:33;;;;;;;6.00;2.20;;;9.90;97.10;;;;;;4998036;28;20122;-63
2021/10/16 08:41:59;;;;;;;5.15;1.80;;;10.00;97.10;;;;;;5013646;28;20065;-62
2021/10/16 08:44:24;;;;;;;14.82;3.58;;;10.10;97.00;;;;;;5013320;28;20393;-63
2021/10/16 08:46:55;;;;;;;13.25;3.50;;;10.10;96.90;;;;;;5013201;28;20052;-63
2021/10/16 08:49:22;;;;;;;9.45;2.58;;;10.10;96.90;;;;;;5013278;28;20137;-63
2021/10/16 08:51:47;;;;;;;9.88;2.70;;;10.20;96.90;;;;;;5013424;28;20057;-63
2021/10/16 08:54:13;;;;;;;10.43;2.70;;;10.20;96.90;;;;;;5012034;28;20050;-63
2021/10/16 08:56:39;;;;;;;11.00;2.67;;;10.30;96.80;;;;;;5012668;28;20056;-63
2021/10/16 08:59:04;;;;;;;8.02;2.70;;;10.30;97.00;;;;;;5011931;28;20053;-62
2021/10/16 09:01:30;;;;;;;6.90;2.25;;;10.30;96.60;;;;;;4978702;28;20609;-62
2021/10/16 09:04:00;;;;;;;8.43;2.17;;;10.40;96.60;;;;;;5012447;28;20033;-62
2021/10/16 09:06:27;;;;;;;9.07;2.90;;;10.50;96.40;;;;;;4978369;28;20128;-63
2021/10/16 09:09:00;;;;;;;11.20;2.42;;;10.60;96.30;;;;;;5012807;28;20021;-63
2021/10/16 09:11:45;;;;;;;4.97;1.77;;;10.60;96.20;;;;;;5012318;28;20080;-63
2021/10/16 09:14:13;;;;;;;5.85;2.28;;;10.70;96.00;;;;;;5007536;28;20029;-63
2021/10/16 09:16:43;;;;;;;10.57;2.42;;;10.70;95.90;;;;;;5009446;28;20010;-63
2021/10/16 09:19:40;;;;;;;;;;;;;;;;;;;;;
2021/10/16 09:22:09;;;;;;;9.32;2.58;;;10.80;95.80;;;;;;5000948;28;20030;-63
2021/10/16 09:24:38;;;;;;;6.13;2.07;;;10.80;95.80;;;;;;5005685;28;20014;-63
2021/10/16 09:27:06;;;;;;;8.73;2.92;;;10.80;95.60;;;;;;5002434;28;20020;-63
2021/10/16 09:29:35;;;;;;;11.82;3.72;;;10.80;95.40;;;;;;5006665;28;20490;-63
2021/10/16 09:32:04;;;;;;;8.98;2.92;;;10.80;95.10;;;;;;5006273;28;20018;-63
2021/10/16 09:34:41;;;;;;;12.48;3.38;;;10.80;95.00;;;;;;5005231;28;20045;-63
2021/10/16 09:37:12;;;;;;;11.57;2.85;;;10.90;95.10;;;;;;4987557;28;20038;-63
2021/10/16 09:39:40;;;;;;;12.50;2.58;;;10.90;95.10;;;;;;5002931;28;20385;-63
2021/10/16 09:42:08;;;;;;;8.25;2.55;;;10.90;95.00;;;;;;5005130;28;20030;-63
2021/10/16 09:44:39;;;;;;;10.60;2.63;;;11.00;94.80;;;;;;5007706;28;20369;-63
2021/10/16 09:47:06;;;;;;;10.68;3.33;;;11.00;94.50;;;;;;5008640;28;20065;-63
2021/10/16 09:49:46;;;;;;;8.15;2.95;;;11.00;94.30;;;;;;5009084;28;20483;-63
2021/10/16 09:52:16;;;;;;;;;;;11.10;94.30;;;;;;5010379;28;20108;-63
2021/10/16 09:54:45;;;;;;;9.00;2.15;;;11.10;94.40;;;;;;5008297;28;19905;-63
2021/10/16 09:57:13;;;;;;;11.82;2.85;;;11.20;94.40;;;;;;5003801;28;20018;-63
2021/10/16 09:59:40;;;;;;;6.82;2.22;;;11.30;94.20;;;;;;5006267;28;20100;-63
2021/10/16 10:02:07;;;;;;;8.30;2.50;;;11.30;94.10;;;;;;5012656;28;20022;-63
2021/10/16 10:05:19;;;;;;;8.63;2.53;;;11.40;93.80;;;;;;5012417;28;20025;-63
2021/10/16 10:07:44;;;;;;;9.80;3.30;;;11.40;93.40;;;;;;4971951;28;20035;-63
2021/10/16 10:10:10;;;;;;;9.13;3.00;;;11.40;93.20;;;;;;5009121;28;20057;-63
2021/10/16 10:12:38;;;;;;;10.50;3.58;;;11.40;93.20;;;;;;5012358;28;20474;-63
2021/10/16 10:15:04;;;;;;;9.98;3.60;;;11.40;92.90;;;;;;5011878;28;20041;-63
2021/10/16 10:18:06;;;;;;;;;;;;;;;;;;;;;
2021/10/16 10:20:32;;;;;;;11.43;3.42;;;11.50;92.80;;;;;;5007952;28;20033;-63
2021/10/16 10:23:18;;;;;;;11.88;3.13;;;11.40;92.80;;;;;;5012494;28;20109;-63
2021/10/16 10:25:44;;;;;;;10.20;3.00;;;11.50;92.70;;;;;;5012020;28;20463;-63
2021/10/16 10:28:09;;;;;;;9.48;3.60;;;11.60;92.60;;;;;;5012646;28;20061;-63
2021/10/16 10:30:56;;;;;;;;;;;;;;;;;;;;;
2021/10/16 10:34:00;;;;;;;17.52;4.72;;;11.70;92.70;;;;;;5012345;28;20030;-64
2021/10/16 10:36:26;;;;;;;14.43;3.78;;;11.70;92.50;;;;;;5001539;28;20033;-63
2021/10/16 10:38:51;;;;;;;12.02;3.58;;;11.70;92.30;;;;;;5010125;28;20394;-63
2021/10/16 10:41:23;;;;;;;13.07;3.60;;;11.70;92.20;;;;;;5006954;28;20034;-63
2021/10/16 10:44:12;;;;;;;16.30;4.35;;;11.80;92.40;;;;;;5011219;28;20030;-63
2021/10/16 10:46:40;;;;;;;9.60;3.58;;;11.80;92.10;;;;;;4989154;28;20038;-63
2021/10/16 10:49:10;;;;;;;12.38;4.03;;;11.90;91.90;;;;;;5002155;28;20026;-63
2021/10/16 10:51:38;;;;;;;9.57;3.08;;;12.00;91.70;;;;;;5010606;28;20029;-63
2021/10/16 10:54:14;;;;;;;12.65;4.18;;;12.00;91.50;;;;;;5008011;28;20482;-63
2021/10/16 10:56:58;;;;;;;11.75;3.20;;;12.10;91.30;;;;;;5004763;28;20093;-63
2021/10/16 10:59:24;;;;;;;14.25;4.05;;;12.20;91.00;;;;;;5004435;28;20049;-63
2021/10/16 11:01:51;;;;;;;15.65;4.07;;;12.40;90.80;;;;;;5013178;28;20022;-63
2021/10/16 11:04:45;;;;;;;15.60;3.80;;;12.50;90.50;;;;;;4989498;28;20048;-63
2021/10/16 11:07:45;;;;;;;13.50;4.95;;;12.90;90.00;;;;;;5006018;28;20043;-63
2021/10/16 11:10:24;;;;;;;12.02;3.22;;;14.20;87.30;;;;;;5006952;28;20061;-63
2021/10/16 11:12:49;;;;;;;9.13;3.00;;;14.90;82.90;;;;;;4993080;28;20022;-63
2021/10/16 11:18:20;;;;;;;7.93;2.60;;;15.70;79.90;;;;;;4979716;28;20030;-64
2021/10/16 11:21:24;;;;;;;13.05;3.55;;;15.70;78.50;;;;;;5015142;28;20029;-64
2021/10/16 11:27:25;;;;;;;8.63;2.17;;;16.20;77.00;;;;;;4969883;28;20037;-64
2021/10/16 11:33:31;;;;;;;9.00;2.35;;;16.80;72.60;;;;;;4899392;28;20069;-64
2021/10/16 11:35:58;;;;;;;5.60;1.92;;;16.90;72.50;;;;;;4973666;28;20030;-64
2021/10/16 11:38:30;;;;;;;9.90;3.05;;;17.20;72.20;;;;;;4997533;28;20022;-64
2021/10/16 11:40:58;;;;;;;10.13;2.70;;;17.00;70.00;;;;;;5000709;28;20018;-64
2021/10/16 11:43:26;;;;;;;15.23;3.40;;;16.70;71.20;;;;;;5015106;28;20029;-64
2021/10/16 11:45:54;;;;;;;7.90;2.00;;;16.70;72.50;;;;;;5000320;28;20025;-64
2021/10/16 11:48:22;;;;;;;7.82;2.13;;;16.90;72.90;;;;;;5014797;28;20014;-64
2021/10/16 11:51:00;;;;;;;13.98;2.95;;;17.40;71.90;;;;;;4995873;28;20034;-64
2021/10/16 11:53:28;;;;;;;7.63;3.22;;;17.60;69.60;;;;;;4995718;28;20062;-64
2021/10/16 11:56:05;;;;;;;10.35;2.08;;;17.90;68.60;;;;;;5009217;28;20084;-64
2021/10/16 11:58:54;;;;;;;4.63;1.40;;;18.20;67.30;;;;;;5014231;28;20038;-64
2021/10/16 12:01:20;;;;;;;4.60;1.75;;;19.20;67.10;;;;;;4993529;28;20030;-64
2021/10/16 12:03:46;;;;;;;7.07;2.20;;;19.90;64.40;;;;;;5004468;28;20474;-64
2021/10/16 12:06:19;;;;;;;7.07;2.15;;;19.70;62.30;;;;;;5014287;28;20026;-64
2021/10/16 12:08:48;;;;;;;6.03;1.70;;;19.50;60.80;;;;;;5005466;28;20549;-64
2021/10/16 12:11:27;;;;;;;6.70;1.80;;;19.20;61.40;;;;;;5008450;28;20378;-64
2021/10/16 12:13:55;;;;;;;6.03;1.50;;;19.30;60.40;;;;;;5014229;28;20363;-64
2021/10/16 12:16:24;;;;;;;5.70;1.50;;;19.10;60.70;;;;;;5014037;28;20109;-64
2021/10/16 12:19:05;;;;;;;3.38;1.15;;;19.10;61.20;;;;;;5006991;28;20030;-64
2021/10/16 12:21:33;;;;;;;3.88;1.30;;;19.20;61.30;;;;;;5008481;28;20028;-64
2021/10/16 12:24:10;;;;;;;3.88;1.23;;;19.20;61.40;;;;;;5012728;28;20029;-64
2021/10/16 12:27:21;;;;;;;4.35;1.63;;;19.20;61.30;;;;;;4991806;28;20030;-64
2021/10/16 12:29:47;;;;;;;2.80;0.80;;;19.30;61.50;;;;;;5010595;28;20032;-64
2021/10/16 12:32:14;;;;;;;2.50;0.85;;;19.30;61.40;;;;;;4982627;28;20022;-64
2021/10/16 12:35:50;;;;;;;;;;;;;;;;;;;;;
2021/10/16 12:41:40;;;;;;;3.42;1.30;;;19.10;59.80;;;;;;4935016;28;20468;-63
2021/10/16 12:44:11;;;;;;;6.70;1.25;;;19.00;59.20;;;;;;5005122;28;20018;-64
2021/10/16 12:46:37;;;;;;;4.07;1.20;;;18.90;59.30;;;;;;5012140;28;20041;-64
2021/10/16 12:49:02;;;;;;;5.13;1.17;;;18.80;59.20;;;;;;4991897;28;20030;-64
2021/10/16 12:51:36;;;;;;;6.32;2.03;;;18.90;59.40;;;;;;4995900;28;20538;-64
2021/10/16 12:54:02;;;;;;;5.50;1.25;;;18.90;58.70;;;;;;5013646;28;20425;-64
2021/10/16 12:56:28;;;;;;;4.68;1.38;;;18.90;59.00;;;;;;4999643;28;20056;-63
2021/10/16 12:58:54;;;;;;;5.10;1.38;;;18.90;59.00;;;;;;4995134;28;20053;-63
2021/10/16 13:01:19;;;;;;;4.07;1.20;;;18.90;59.00;;;;;;5012529;28;20022;-64
2021/10/16 13:04:20;;;;;;;6.85;1.80;;;18.90;58.90;;;;;;4986517;28;20038;-64
2021/10/16 13:06:44;;;;;;;4.72;1.30;;;18.90;59.00;;;;;;5012554;28;20041;-63
2021/10/16 13:09:10;;;;;;;3.50;1.30;;;18.70;58.90;;;;;;5012871;28;20030;-64
2021/10/16 13:11:35;;;;;;;7.38;1.48;;;18.70;59.00;;;;;;5012693;28;20022;-63
2021/10/16 13:14:01;;;;;;;4.20;1.13;;;18.60;58.80;;;;;;5012898;28;20390;-63
2021/10/16 13:16:26;;;;;;;7.82;1.33;;;18.60;58.80;;;;;;5011212;28;20041;-63
2021/10/16 13:18:52;;;;;;;6.53;1.67;;;18.30;57.60;;;;;;4997172;28;20029;-63
2021/10/16 13:21:17;;;;;;;4.80;1.30;;;17.90;57.20;;;;;;5012824;28;20140;-63
2021/10/16 13:23:43;;;;;;;5.97;1.55;;;17.70;58.40;;;;;;5012013;28;20034;-63